Portales, NM (88130)

3:01 AM MST en Febrero 14, 2016 (GMT -0700)
ENMU | | Change Station
CLOSE
Current Station
Estación meteorológica personal
Location: Portales, NM
Altura: 4026 ft
Estaciones meteorológicas cercanas

Alt 4026 ft 34.18 °N, 103.35 °W | Updated 9 minutes ago

Despejado
Despejado
40.7 ° F
Sensación térmica 41 ° F
N
3.0
Viento Variable Viento desde Oeste
Gusts 6.0 mph

Hoy
Alta -- | Baja -- ° F
--% Posibilidad de precipitaciones
Ayer
Alta -- | Baja -- ° F
Precip. -- pul
Presión 29.83 pul
Visibilidad 10.0 Millas
Nubes Despejado
Vientos helados 41 ° F
Punto de rocío 18 ° F
Humedad 40%
Precipitaciones 0.00 pul
Espesor de la nieve No disponible.
6:39 AM 5:35 PM
Creciente, 40% visible
METAR KCVS 140958Z AUTO 34013KT 10SM CLR 06/M08 A2994 RMK AO2 SLP102 T00551083 $
Presión 29.83 pul
Visibilidad 10.0 Millas
Nubes Despejado
Vientos helados 41 ° F
Punto de rocío 18 ° F
Humedad 40%
Precipitaciones 0.00 pul
Espesor de la nieve No disponible.
6:39 AM 5:35 PM
Creciente, 40% visible
METAR KCVS 140958Z AUTO 34013KT 10SM CLR 06/M08 A2994 RMK AO2 SLP102 T00551083 $

10-Day Weather Forecast

Almanac

Astronomía

Feb. 14, 2016 Salida Puesta
Hora real
Crepúsculo civil
Crepúsculo náutico
Crepúsculo astronómico
Luna
Horas de luz
Horas de luz
Tomorrow will be .
, % of the Moon is Illuminated

Extremos de hoy

Máximos del estado Bajos del estado

Community

WunderPhotos

Upload Photos

1,892,761 ¡fotos cargadas!

WunderBlog® & News

Nearby

Calidad del aire

  Calidad del aire Índice AQ Contaminante
Not available.

Grosos de nieve

Estación Profundido Altura

Actividad de terremotos

Ciudad Distance Mag. Tiempo y dato
Magnitud mínima muestra es 2,5.

Temperaturas de aguas costeras

Lugar Temperatura

Stations

Estaciones meteorológicas cercanas

Ubicación de la estación Temp. Vientos helados Punto de rocío Humedad Viento Precip. Alt Actualizado Tipo
                   

Watches & Warnings

There are currently no watches in effect.